Time;durP1;ratioP1;P1;durP2;ratioP2;P2;SDS_P1;SDS_P2;PMS_P1;PMS_P2;Temp;Humidity;BMP_temperature;BMP_pressure;BME280_temperature;BME280_humidity;BME280_pressure;Samples;Min_cycle;Max_cycle;Signal;HPM_P1;HPM_P2
2022/05/26 00:02:16;;;;;;;4.20;1.80;;;;;;;16.77;72.60;98302.30;104679;1274;63583;-24
2022/05/26 00:04:44;;;;;;;2.70;2.20;;;;;;;17.15;71.73;98300.50;104694;1274;62806;-24
2022/05/26 00:07:11;;;;;;;5.20;2.80;;;;;;;17.42;71.05;98301.22;104659;1274;75312;-24
2022/05/26 00:09:38;;;;;;;3.70;2.70;;;;;;;17.34;71.71;98295.46;104755;1274;76862;-23
2022/05/26 00:12:06;;;;;;;3.50;2.50;;;;;;;17.11;73.10;98298.04;104915;1274;75414;-24
2022/05/26 00:14:34;;;;;;;4.80;3.00;;;;;;;16.79;75.08;98295.98;104800;1274;61917;-24
2022/05/26 00:17:01;;;;;;;4.60;2.50;;;;;;;16.59;76.71;98296.34;104991;1274;62927;-24
2022/05/26 00:19:29;;;;;;;5.40;3.20;;;;;;;16.87;76.84;98301.61;104913;1274;76563;-24
2022/05/26 00:21:56;;;;;;;4.30;3.10;;;;;;;17.01;76.00;98306.22;105112;1274;75654;-24
2022/05/26 00:24:24;;;;;;;3.90;2.90;;;;;;;16.91;76.89;98308.33;105051;1274;75703;-24
2022/05/26 00:26:51;;;;;;;4.40;3.40;;;;;;;16.69;78.48;98305.27;104846;1274;63133;-25
2022/05/26 00:29:19;;;;;;;5.00;2.90;;;;;;;16.51;80.02;98310.34;105113;1274;61829;-25
2022/05/26 00:31:47;;;;;;;5.00;3.30;;;;;;;16.77;79.38;98308.77;105103;1274;74425;-24
2022/05/26 00:34:14;;;;;;;4.20;3.50;;;;;;;16.97;78.64;98311.95;105059;1274;76974;-25
2022/05/26 00:36:43;;;;;;;4.90;3.70;;;;;;;16.86;79.15;98309.41;105042;1271;75426;-25
2022/05/26 00:39:18;;;;;;;4.70;3.80;;;;;;;16.67;80.03;98313.19;105046;1272;61903;-25
2022/05/26 00:41:47;;;;;;;5.60;3.00;;;;;;;16.46;81.32;98314.44;104768;1271;62135;-25
2022/05/26 00:44:15;;;;;;;5.00;3.50;;;;;;;16.80;80.00;98314.70;104807;1271;76548;-24
2022/05/26 00:47:09;;;;;;;4.20;3.60;;;;;;;16.97;79.31;98314.06;105167;1271;77054;-24
2022/05/26 00:49:40;;;;;;;7.20;3.60;;;;;;;16.83;79.80;98314.84;104994;1271;75505;-25
2022/05/26 00:52:16;;;;;;;4.70;4.00;;;;;;;16.58;80.72;98311.82;104879;1271;62810;-25
2022/05/26 00:54:44;;;;;;;3.30;2.70;;;;;;;16.49;81.49;98308.73;104902;1271;62035;-25
2022/05/26 00:57:16;;;;;;;5.00;3.20;;;;;;;16.92;80.05;98305.08;104923;1271;76549;-25
2022/05/26 00:59:58;;;;;;;5.00;3.70;;;;;;;17.22;78.59;98301.10;104809;1271;76964;-24
2022/05/26 01:02:32;;;;;;;7.00;4.10;;;;;;;16.99;79.82;98307.00;104656;1272;75422;-25
2022/05/26 01:05:04;;;;;;;4.50;3.80;;;;;;;16.60;81.86;98311.10;104653;1272;62036;-25
2022/05/26 01:07:32;;;;;;;4.10;3.10;;;;;;;16.42;83.15;98317.66;104597;1274;61794;-25
2022/05/26 01:10:00;;;;;;;3.80;3.30;;;;;;;16.61;82.37;98317.27;104612;1275;76595;-25
2022/05/26 01:12:27;;;;;;;3.40;2.10;;;;;;;16.28;81.66;98303.39;104741;1274;75844;-24
2022/05/26 01:15:10;;;;;;;2.40;1.80;;;;;;;15.95;82.29;98313.77;104798;1272;75482;-24
2022/05/26 01:17:59;;;;;;;1.70;1.20;;;;;;;15.55;83.71;98322.09;104928;1271;61887;-23
2022/05/26 01:20:30;;;;;;;1.40;1.20;;;;;;;15.33;84.88;98324.80;105128;1271;63168;-23
2022/05/26 01:23:19;;;;;;;1.80;1.40;;;;;;;15.41;84.59;98338.89;105086;1271;76544;-23
2022/05/26 01:25:59;;;;;;;2.00;1.80;;;;;;;15.35;84.04;98340.25;105043;1271;76689;-24
2022/05/26 01:28:45;;;;;;;1.90;1.30;;;;;;;14.91;85.84;98348.73;104858;1274;74463;-24
2022/05/26 01:31:21;;;;;;;2.40;1.80;;;;;;;15.10;84.77;98348.29;104864;1274;62825;-23
2022/05/26 01:34:25;;;;;;;2.40;2.00;;;;;;;15.06;82.76;98353.03;104893;1271;62222;-24
2022/05/26 01:37:12;;;;;;;2.20;1.60;;;;;;;14.93;82.74;98358.36;105086;1271;76639;-23
2022/05/26 01:39:48;;;;;;;3.80;2.30;;;;;;;14.55;84.63;98360.55;104866;1272;77097;-23
2022/05/26 01:42:38;;;;;;;3.20;2.70;;;;;;;14.60;84.52;98362.06;104945;1271;74352;-24
2022/05/26 01:45:17;;;;;;;5.00;3.90;;;;;;;14.75;83.25;98362.09;104922;1271;63198;-23
2022/05/26 01:48:02;;;;;;;4.70;3.50;;;;;;;14.36;85.02;98368.97;104821;1271;63498;-23
2022/05/26 01:50:48;;;;;;;4.40;3.50;;;;;;;14.10;85.94;98365.89;104918;1271;74705;-24
2022/05/26 01:53:22;;;;;;;4.80;3.60;;;;;;;14.05;85.56;98362.92;104967;1271;75238;-23
2022/05/26 01:56:09;;;;;;;3.80;3.20;;;;;;;14.21;84.31;98380.52;104731;1275;75110;-24
2022/05/26 01:58:43;;;;;;;2.70;2.50;;;;;;;14.15;84.47;98385.00;104996;1272;63075;-24
2022/05/26 02:01:13;;;;;;;3.10;2.40;;;;;;;14.05;84.51;98386.28;104678;1272;61112;-24
2022/05/26 02:03:41;;;;;;;4.40;2.70;;;;;;;14.21;83.58;98392.98;104659;1271;75594;-24
2022/05/26 02:06:36;;;;;;;3.30;2.70;;;;;;;14.20;82.54;98383.81;105145;1271;75969;-24
2022/05/26 02:09:14;;;;;;;3.60;2.70;;;;;;;13.95;83.11;98384.38;105031;1271;75783;-25
2022/05/26 02:11:48;;;;;;;2.50;2.30;;;;;;;13.88;83.57;98396.48;104678;1271;61841;-25
2022/05/26 02:14:19;;;;;;;5.30;2.50;;;;;;;14.15;82.70;98401.98;104853;1272;61793;-25
2022/05/26 02:16:51;;;;;;;3.60;2.50;;;;;;;14.25;81.63;98405.61;104880;1271;76631;-25
2022/05/26 02:20:00;;;;;;;3.30;2.30;;;;;;;14.09;81.90;98408.77;104789;1272;76990;-25
2022/05/26 02:22:32;;;;;;;2.80;1.90;;;;;;;13.78;82.30;98421.59;104805;1271;75547;-25
2022/05/26 02:25:07;;;;;;;2.40;1.80;;;;;;;13.69;82.49;98426.48;104734;1271;64383;-25
2022/05/26 02:27:35;;;;;;;1.80;1.60;;;;;;;13.89;80.70;98430.08;105078;1271;61528;-25
2022/05/26 02:30:04;;;;;;;4.70;1.90;;;;;;;13.79;80.39;98427.21;104778;1272;76553;-25
2022/05/26 02:32:36;;;;;;;1.80;1.60;;;;;;;13.69;80.56;98433.09;104676;1271;77218;-25
2022/05/26 02:35:10;;;;;;;1.20;1.10;;;;;;;13.47;81.11;98434.19;104602;1271;75262;-25
2022/05/26 02:37:38;;;;;;;1.10;1.00;;;;;;;13.53;80.56;98436.33;104617;1272;63144;-25
2022/05/26 02:40:07;;;;;;;2.20;1.20;;;;;;;13.72;79.11;98435.12;104670;1274;61840;-25
2022/05/26 02:42:37;;;;;;;2.00;1.20;;;;;;;13.65;79.12;98443.60;104907;1271;75486;-25
2022/05/26 02:45:05;;;;;;;1.40;1.10;;;;;;;13.45;79.78;98449.58;104635;1271;76794;-25
2022/05/26 02:48:11;;;;;;;1.90;1.10;;;;;;;13.14;80.96;98450.52;105012;1271;74259;-25
2022/05/26 02:50:56;;;;;;;1.90;1.20;;;;;;;13.41;80.08;98452.20;105022;1274;61780;-25
2022/05/26 02:53:41;;;;;;;2.20;1.10;;;;;;;13.35;80.24;98457.67;105079;1271;62843;-25
2022/05/26 02:56:55;;;;;;;2.20;1.50;;;;;;;13.23;79.94;98450.39;104860;1273;75458;-25
2022/05/26 02:59:45;;;;;;;1.70;0.90;;;;;;;12.99;81.65;98463.61;104810;1271;77039;-25
2022/05/26 03:02:20;;;;;;;0.80;0.80;;;;;;;13.28;80.41;98466.95;104894;1271;75383;-25
2022/05/26 03:05:28;;;;;;;1.40;1.10;;;;;;;13.37;79.68;98465.16;104886;1271;61439;-25
2022/05/26 03:07:58;;;;;;;1.40;1.10;;;;;;;13.18;80.69;98466.19;104970;1271;61060;-25
2022/05/26 03:10:26;;;;;;;1.20;1.10;;;;;;;13.01;81.58;98474.37;104820;1271;75660;-25
2022/05/26 03:12:55;;;;;;;1.00;0.90;;;;;;;12.99;81.89;98478.77;104845;1271;76866;-25
2022/05/26 03:15:22;;;;;;;1.40;1.30;;;;;;;13.36;80.58;98486.50;105104;1271;74167;-25
2022/05/26 03:17:50;;;;;;;1.30;1.20;;;;;;;13.28;80.75;98492.90;105138;1271;61997;-25
2022/05/26 03:20:18;;;;;;;2.30;1.10;;;;;;;13.14;81.41;98495.19;105098;1271;62019;-25
2022/05/26 03:22:45;;;;;;;2.10;0.80;;;;;;;12.91;82.94;98498.80;105120;1271;76577;-25
2022/05/26 03:25:13;;;;;;;1.60;1.40;;;;;;;13.17;82.38;98499.73;104948;1271;76861;-25
2022/05/26 03:27:40;;;;;;;1.10;1.00;;;;;;;13.29;81.54;98498.40;105126;1271;74148;-25
2022/05/26 03:30:08;;;;;;;1.90;1.20;;;;;;;13.30;81.40;98495.30;104941;1272;61807;-25
2022/05/26 03:32:36;;;;;;;1.50;1.10;;;;;;;13.04;82.41;98494.61;104891;1271;62050;-25
2022/05/26 03:43:20;;;;;;;1.60;0.90;;;;;;;12.73;80.66;98497.28;105087;1271;61931;-25
2022/05/26 03:45:47;;;;;;;2.40;1.50;;;;;;;12.42;81.77;98507.32;104911;1271;63049;-25
2022/05/26 03:48:15;;;;;;;1.30;0.80;;;;;;;12.54;81.83;98525.06;105067;1271;76766;-25
2022/05/26 03:50:42;;;;;;;1.30;1.10;;;;;;;12.81;79.96;98526.14;105076;1271;75887;-25
2022/05/26 03:53:10;;;;;;;1.20;1.10;;;;;;;12.69;79.95;98518.74;104930;1274;75340;-25
2022/05/26 03:55:38;;;;;;;2.00;0.80;;;;;;;12.43;80.73;98510.11;105054;1271;61706;-25
2022/05/26 03:58:06;;;;;;;3.10;1.00;;;;;;;12.24;81.58;98518.83;105084;1271;61676;-24
2022/05/26 04:00:34;;;;;;;3.50;1.90;;;;;;;12.62;80.43;98530.46;104814;1271;76258;-25
2022/05/26 04:03:01;;;;;;;4.00;1.10;;;;;;;12.65;79.91;98518.88;105051;1271;75821;-25
2022/05/26 04:05:29;;;;;;;1.40;1.10;;;;;;;12.50;80.52;98525.19;104964;1271;75371;-25
2022/05/26 04:07:56;;;;;;;1.60;1.20;;;;;;;12.32;80.74;98522.77;104813;1271;63214;-25
2022/05/26 04:10:24;;;;;;;1.10;0.90;;;;;;;12.19;80.68;98522.37;105068;1271;62708;-25
2022/05/26 04:12:51;;;;;;;2.30;0.60;;;;;;;12.48;79.51;98528.35;104826;1271;76675;-25
2022/05/26 04:15:19;;;;;;;1.20;1.00;;;;;;;12.58;78.55;98529.75;105090;1271;75891;-25
2022/05/26 04:17:46;;;;;;;1.40;0.80;;;;;;;12.43;78.72;98543.59;105039;1271;74585;-25
2022/05/26 04:20:16;;;;;;;1.80;1.00;;;;;;;12.22;79.55;98545.63;105076;1271;61886;-24
2022/05/26 04:22:43;;;;;;;2.10;0.90;;;;;;;12.07;80.01;98551.17;105106;1271;63572;-25
2022/05/26 04:25:11;;;;;;;1.60;0.90;;;;;;;12.32;78.56;98547.61;104852;1271;75597;-25
2022/05/26 04:27:38;;;;;;;2.10;1.30;;;;;;;12.45;77.40;98554.36;104778;1271;76949;-25
2022/05/26 04:30:07;;;;;;;4.90;1.20;;;;;;;12.42;77.94;98551.73;104793;1272;75364;-25
2022/05/26 04:32:35;;;;;;;3.10;1.20;;;;;;;12.31;78.79;98556.54;104692;1271;63231;-25
2022/05/26 04:35:02;;;;;;;1.10;0.90;;;;;;;12.27;78.54;98549.98;104736;1274;62797;-25
2022/05/26 04:37:30;;;;;;;4.20;1.20;;;;;;;12.44;77.62;98550.43;105160;1271;76408;-25
2022/05/26 04:39:58;;;;;;;1.10;1.00;;;;;;;12.63;77.40;98547.20;105082;1274;76904;-25
2022/05/26 04:42:26;;;;;;;2.00;1.10;;;;;;;12.64;76.60;98548.02;105116;1271;75386;-25
2022/05/26 04:44:53;;;;;;;1.30;1.20;;;;;;;12.77;76.23;98545.16;105027;1274;63056;-25
2022/05/26 04:47:21;;;;;;;1.40;1.30;;;;;;;12.82;74.70;98543.98;104879;1271;62840;-25
2022/05/26 04:49:48;;;;;;;2.10;1.10;;;;;;;12.64;75.48;98564.67;104952;1271;75559;-26
2022/05/26 04:52:18;;;;;;;1.70;1.20;;;;;;;12.79;75.20;98571.13;105184;1271;77108;-26
2022/05/26 04:54:47;;;;;;;2.80;0.80;;;;;;;13.05;74.31;98575.83;104903;1271;74337;-25
2022/05/26 04:57:15;;;;;;;3.30;1.50;;;;;;;12.91;73.44;98568.20;105153;1271;61045;-25
2022/05/26 04:59:43;;;;;;;2.20;1.10;;;;;;;12.61;74.40;98575.92;105133;1271;62260;-26
2022/05/26 05:02:14;;;;;;;5.50;1.90;;;;;;;12.47;74.66;98575.20;105148;1271;75528;-25
2022/05/26 05:04:44;;;;;;;2.00;1.50;;;;;;;12.42;74.66;98569.93;104798;1271;76998;-26
2022/05/26 05:07:11;;;;;;;1.70;1.10;;;;;;;12.38;73.84;98571.23;105137;1271;75913;-26
2022/05/26 05:09:39;;;;;;;2.10;1.40;;;;;;;12.72;72.70;98571.30;105070;1271;62861;-25
2022/05/26 05:12:08;;;;;;;1.40;1.30;;;;;;;12.44;73.69;98563.64;105067;1271;62688;-25
2022/05/26 05:14:40;;;;;;;1.30;1.20;;;;;;;12.44;74.32;98580.91;104876;1271;76531;-26
2022/05/26 05:17:07;;;;;;;2.30;1.60;;;;;;;12.44;74.15;98571.91;104804;1271;76500;-25
2022/05/26 05:19:35;;;;;;;3.30;1.10;;;;;;;12.50;73.73;98580.30;104832;1271;74060;-25
2022/05/26 05:22:23;;;;;;;2.50;1.30;;;;;;;12.78;72.25;98568.74;104824;1271;63576;-25
2022/05/26 05:24:52;;;;;;;2.00;1.40;;;;;;;13.42;71.16;98574.80;104646;1271;62200;-25
2022/05/26 05:27:35;;;;;;;2.00;1.30;;;;;;;13.19;70.44;98572.04;104797;1271;76400;-25
2022/05/26 05:30:06;;;;;;;2.30;1.70;;;;;;;13.06;71.40;98582.40;104704;1271;76977;-25
2022/05/26 05:32:55;;;;;;;5.30;1.40;;;;;;;12.76;71.65;98579.08;104797;1271;75284;-25
2022/05/26 05:35:26;;;;;;;2.90;1.90;;;;;;;12.59;71.74;98586.92;104565;1271;63124;-25
2022/05/26 05:37:53;;;;;;;1.50;1.40;;;;;;;12.66;72.27;98588.20;104678;1271;61141;-25
2022/05/26 05:40:21;;;;;;;1.80;1.60;;;;;;;12.65;72.63;98591.77;104765;1271;75451;-25
2022/05/26 05:42:48;;;;;;;2.10;1.70;;;;;;;13.01;71.00;98605.92;104772;1271;77132;-25
2022/05/26 05:45:16;;;;;;;2.00;1.70;;;;;;;13.17;70.57;98603.95;104697;1271;75372;-25
2022/05/26 05:47:43;;;;;;;1.90;1.50;;;;;;;13.14;70.87;98613.86;104716;1274;63296;-25
2022/05/26 05:50:11;;;;;;;3.00;1.90;;;;;;;13.16;71.19;98613.09;104753;1271;61254;-25
2022/05/26 05:52:38;;;;;;;2.00;1.80;;;;;;;13.19;72.06;98610.73;104899;1271;75299;-25
2022/05/26 05:55:06;;;;;;;2.10;1.90;;;;;;;13.16;71.47;98599.84;104757;1274;77018;-25
2022/05/26 05:57:36;;;;;;;1.70;1.40;;;;;;;13.20;71.58;98606.98;104852;1271;75835;-25
2022/05/26 06:00:05;;;;;;;5.10;2.20;;;;;;;13.64;69.78;98614.63;105116;1271;63070;-25
2022/05/26 06:02:32;;;;;;;2.30;2.00;;;;;;;13.70;68.74;98605.89;104885;1271;62753;-25
2022/05/26 06:05:02;;;;;;;3.40;1.80;;;;;;;13.51;68.69;98613.34;105161;1271;74726;-25
2022/05/26 06:07:29;;;;;;;2.10;1.90;;;;;;;13.54;68.51;98618.83;104906;1271;76987;-25
2022/05/26 06:09:57;;;;;;;2.80;2.40;;;;;;;13.80;69.10;98629.88;105010;1271;74042;-25
2022/05/26 06:12:24;;;;;;;2.50;2.30;;;;;;;13.73;68.77;98615.71;104902;1274;63076;-25
2022/05/26 06:14:52;;;;;;;2.90;2.40;;;;;;;13.85;68.76;98622.65;104795;1271;62779;-25
2022/05/26 06:17:20;;;;;;;4.10;2.50;;;;;;;13.77;69.30;98619.42;105141;1271;76529;-25
2022/05/26 06:19:47;;;;;;;4.60;3.00;;;;;;;13.38;69.77;98614.78;105083;1271;76708;-25
2022/05/26 06:22:17;;;;;;;3.30;2.80;;;;;;;13.18;70.41;98628.63;105104;1271;74599;-25
2022/05/26 06:24:45;;;;;;;8.30;3.50;;;;;;;13.42;69.17;98626.59;104820;1271;61894;-24
2022/05/26 06:30:00;;;;;;;4.40;3.30;;;;;;;14.46;65.92;98646.19;104626;1271;75579;-24
2022/05/26 06:38:00;;;;;;;3.60;2.80;;;;;;;14.00;67.76;98640.54;105046;1274;62897;-24
2022/05/26 06:40:31;;;;;;;5.10;2.80;;;;;;;13.93;68.08;98642.28;105166;1271;61089;-24
2022/05/26 06:42:59;;;;;;;4.50;3.40;;;;;;;14.20;68.24;98643.50;105134;1271;76794;-24
2022/05/26 06:45:27;;;;;;;4.20;3.20;;;;;;;14.19;66.88;98631.47;105117;1271;74669;-24
2022/05/26 06:47:55;;;;;;;3.20;2.20;;;;;;;14.17;67.23;98634.94;105109;1271;74399;-24
2022/05/26 06:50:22;;;;;;;4.00;2.90;;;;;;;14.07;66.90;98624.98;104538;1274;479527;-25
2022/05/26 06:52:50;;;;;;;3.50;3.20;;;;;;;14.00;67.22;98636.91;104739;1271;61951;-24
2022/05/26 06:55:18;;;;;;;4.70;2.20;;;;;;;14.04;68.57;98644.48;104642;1272;75551;-24
2022/05/26 06:57:45;;;;;;;5.30;2.50;;;;;;;14.43;68.31;98646.39;104998;1271;76932;-24
2022/05/26 07:00:15;;;;;;;4.70;2.40;;;;;;;14.51;65.98;98638.66;105042;1271;75754;-24
2022/05/26 07:02:42;;;;;;;3.30;2.50;;;;;;;14.55;66.06;98636.17;104868;1274;62933;-24
2022/05/26 07:05:11;;;;;;;3.50;2.80;;;;;;;14.76;65.17;98641.52;104933;1274;61990;-24
2022/05/26 07:07:40;;;;;;;3.40;2.90;;;;;;;14.78;64.75;98644.80;105126;1271;75542;-24
2022/05/26 07:10:09;;;;;;;4.10;2.80;;;;;;;15.03;65.28;98647.34;104650;1271;77071;-26
2022/05/26 07:12:36;;;;;;;3.30;2.70;;;;;;;14.84;65.09;98645.89;104649;1274;75406;-24
2022/05/26 07:15:04;;;;;;;7.10;3.00;;;;;;;14.73;66.32;98647.57;104702;1274;62017;-24
2022/05/26 07:17:31;;;;;;;3.20;2.80;;;;;;;14.53;65.39;98629.64;104445;1274;62130;-24
2022/05/26 07:19:59;;;;;;;3.60;2.50;;;;;;;14.45;65.43;98634.13;105045;1271;76596;-24
2022/05/26 07:22:30;;;;;;;3.90;2.60;;;;;;;14.77;65.38;98643.67;105046;1271;76872;-24
2022/05/26 07:24:58;;;;;;;3.90;2.50;;;;;;;15.10;64.05;98633.71;104814;1271;74581;-23
2022/05/26 07:27:25;;;;;;;3.20;2.50;;;;;;;15.44;62.70;98629.44;105101;1271;61676;-23
2022/05/26 07:29:53;;;;;;;3.90;2.60;;;;;;;15.09;63.75;98635.61;105040;1274;63149;-24
2022/05/26 07:32:22;;;;;;;3.60;2.80;;;;;;;15.19;64.98;98640.78;105121;1274;76555;-24
2022/05/26 07:34:50;;;;;;;3.50;2.70;;;;;;;15.57;64.58;98640.42;104958;1271;75171;-24
2022/05/26 07:42:50;;;;;;;4.50;3.00;;;;;;;15.40;61.85;98633.19;104871;1271;63299;-23
2022/05/26 07:45:18;;;;;;;4.60;3.10;;;;;;;15.75;61.14;98625.46;105074;1271;76751;-25
2022/05/26 07:47:47;;;;;;;2.80;2.20;;;;;;;15.85;61.21;98632.84;105099;1271;77209;-23
2022/05/26 07:50:19;;;;;;;2.90;2.60;;;;;;;15.62;60.44;98619.88;105131;1271;75214;-23
2022/05/26 07:52:48;;;;;;;3.20;2.60;;;;;;;15.39;61.34;98629.71;105061;1271;63052;-23
2022/05/26 07:55:18;;;;;;;3.00;2.20;;;;;;;15.46;60.92;98647.25;104661;1274;63026;-24
2022/05/26 07:57:45;;;;;;;9.40;3.20;;;;;;;15.35;60.73;98634.00;104665;1270;75780;-25
2022/05/26 08:00:14;;;;;;;3.50;2.80;;;;;;;15.55;61.54;98646.73;104685;1274;77034;-25
2022/05/26 08:02:42;;;;;;;3.60;3.20;;;;;;;15.46;61.98;98650.30;104684;1271;75381;-24
2022/05/26 08:05:10;;;;;;;3.60;3.20;;;;;;;15.40;63.09;98654.28;104661;1274;62816;-24
2022/05/26 08:07:37;;;;;;;3.00;2.40;;;;;;;15.21;61.14;98638.30;104736;1271;61665;-26
2022/05/26 08:10:05;;;;;;;7.70;3.60;;;;;;;15.53;60.40;98636.29;104719;1271;76355;-23
2022/05/26 08:12:33;;;;;;;4.30;3.40;;;;;;;15.84;60.61;98648.31;105002;1271;75993;-23
2022/05/26 08:15:00;;;;;;;5.50;3.20;;;;;;;15.96;59.89;98643.86;105056;1271;75397;-25
2022/05/26 08:17:28;;;;;;;3.70;3.00;;;;;;;16.28;59.11;98634.92;104790;1271;62755;-26
2022/05/26 08:19:55;;;;;;;4.30;3.20;;;;;;;16.31;57.94;98641.88;104687;1271;62799;-26
2022/05/26 08:22:23;;;;;;;5.10;3.50;;;;;;;16.19;58.13;98649.20;104760;1274;75575;-23
2022/05/26 08:24:54;;;;;;;4.00;3.20;;;;;;;16.17;59.83;98656.41;104986;1271;76772;-23
2022/05/26 08:27:22;;;;;;;8.40;3.90;;;;;;;16.09;60.49;98654.55;104699;1271;74308;-23
2022/05/26 08:29:51;;;;;;;4.90;3.70;;;;;;;16.28;60.01;98653.35;104824;1271;62067;-23
2022/05/26 08:32:20;;;;;;;7.70;4.70;;;;;;;16.63;60.35;98655.59;104875;1271;62013;-23
2022/05/26 08:34:48;;;;;;;5.60;4.30;;;;;;;16.66;59.76;98656.82;104744;1271;76696;-24
2022/05/26 08:37:20;;;;;;;4.70;3.30;;;;;;;16.44;56.90;98641.21;104991;1271;76932;-24
2022/05/26 08:39:47;;;;;;;6.20;3.80;;;;;;;16.21;56.92;98649.36;104692;1271;75359;-25
2022/05/26 08:42:21;;;;;;;3.60;3.10;;;;;;;15.87;58.54;98652.38;104811;1270;62329;-26
2022/05/26 08:44:48;;;;;;;4.50;3.90;;;;;;;15.98;59.63;98655.80;104809;1271;61722;-23
2022/05/26 08:47:17;;;;;;;6.20;4.70;;;;;;;15.86;60.27;98658.61;104846;1271;76517;-24
2022/05/26 08:49:57;;;;;;;5.10;4.10;;;;;;;15.84;60.99;98660.55;104687;1271;76984;-23
2022/05/26 08:52:50;;;;;;;4.70;3.30;;;;;;;16.37;60.20;98651.16;105057;1271;75553;-26
2022/05/26 08:55:43;;;;;;;5.10;4.00;;;;;;;16.42;57.77;98650.55;105104;1271;62748;-23
2022/05/26 08:58:22;;;;;;;11.90;3.60;;;;;;;16.22;56.83;98635.64;104786;1271;63007;-23
2022/05/26 09:00:51;;;;;;;6.60;3.60;;;;;;;16.43;57.06;98636.98;104765;1274;76521;-25
2022/05/26 09:03:21;;;;;;;3.70;3.10;;;;;;;16.31;57.39;98635.49;105174;1271;76083;-24
2022/05/26 09:05:54;;;;;;;4.50;3.30;;;;;;;16.17;58.56;98656.52;105123;1271;75503;-25
2022/05/26 09:14:03;;;;;;;4.10;2.90;;;;;;;15.89;57.94;98654.44;104695;1271;76707;-24
2022/05/26 09:16:32;;;;;;;6.70;3.40;;;;;;;15.84;57.83;98657.11;104742;1272;77118;-25
2022/05/26 09:19:20;;;;;;;13.60;3.40;;;;;;;16.55;58.78;98667.11;104823;1271;75400;-25
2022/05/26 09:21:48;;;;;;;4.20;3.10;;;;;;;16.80;54.61;98657.21;104801;1271;61973;-25
2022/05/26 09:24:16;;;;;;;4.30;3.10;;;;;;;16.66;55.25;98665.25;105027;1271;61682;-25
2022/05/26 09:26:47;;;;;;;3.60;2.50;;;;;;;16.32;56.35;98665.66;105159;1271;76341;-25
2022/05/26 09:29:15;;;;;;;4.80;3.10;;;;;;;16.23;55.99;98663.34;104678;1271;76059;-25
2022/05/26 09:31:47;;;;;;;4.60;3.30;;;;;;;16.46;55.72;98669.41;105021;1271;75239;-25
2022/05/26 09:34:22;;;;;;;3.70;3.10;;;;;;;16.20;55.07;98661.36;104753;1271;61938;-25
2022/05/26 09:36:56;;;;;;;5.60;3.70;;;;;;;16.00;55.33;98663.96;105081;1271;63049;-23
2022/05/26 09:39:26;;;;;;;4.50;3.40;;;;;;;15.68;56.59;98679.67;105107;1271;76532;-26
2022/05/26 09:41:55;;;;;;;4.40;3.50;;;;;;;15.57;57.62;98687.83;104870;1271;76857;-24
2022/05/26 09:44:54;;;;;;;5.10;3.40;;;;;;;15.86;58.25;98682.80;104858;1271;74137;-24
2022/05/26 09:47:37;;;;;;;5.30;3.60;;;;;;;16.06;57.39;98680.98;105046;1271;61693;-23
2022/05/26 09:50:07;;;;;;;5.50;4.40;;;;;;;16.75;57.69;98679.75;105081;1271;63029;-25
2022/05/26 09:52:54;;;;;;;5.80;4.50;;;;;;;17.05;55.96;98684.34;105073;1271;75354;-25
2022/05/26 09:55:26;;;;;;;4.70;3.60;;;;;;;17.19;56.01;98686.40;104629;1271;77026;-26
2022/05/26 09:58:07;;;;;;;5.70;4.10;;;;;;;17.00;55.91;98684.00;104688;1271;75143;-26
2022/05/26 10:00:45;;;;;;;14.70;4.40;;;;;;;16.75;56.06;98676.11;104669;1271;63194;-25
2022/05/26 10:03:25;;;;;;;5.60;3.70;;;;;;;17.24;55.77;98672.91;104575;1274;63021;-24
2022/05/26 10:06:29;;;;;;;5.60;3.40;;;;;;;17.86;56.63;98685.88;104575;1274;77119;-24
2022/05/26 10:09:30;;;;;;;4.70;4.00;;;;;;;17.91;53.85;98680.90;104789;1274;77253;-25
2022/05/26 10:12:01;;;;;;;4.90;4.00;;;;;;;17.49;54.18;98675.63;104624;1274;74452;-25
2022/05/26 10:14:47;;;;;;;3.20;2.80;;;;;;;17.73;53.37;98667.23;104610;1274;63169;-25
2022/05/26 10:17:27;;;;;;;4.00;3.00;;;;;;;18.08;51.20;98651.73;104368;1275;63027;-24
2022/05/26 10:20:25;;;;;;;7.80;3.90;;;;;;;18.01;51.04;98672.09;104635;1274;76335;-25
2022/05/26 10:23:00;;;;;;;4.00;3.30;;;;;;;17.88;51.91;98657.89;104744;1274;77174;-26
2022/05/26 10:25:35;;;;;;;4.70;3.10;;;;;;;18.07;51.53;98663.11;104657;1274;74316;-25
2022/05/26 10:28:11;;;;;;;3.10;2.30;;;;;;;18.31;50.84;98663.63;104581;1274;63095;-24
2022/05/26 10:31:19;;;;;;;3.30;2.60;;;;;;;18.56;49.90;98667.02;104487;1275;61974;-25
2022/05/26 10:34:24;;;;;;;3.70;2.70;;;;;;;18.64;49.63;98667.55;104388;1274;76509;-25
2022/05/26 10:37:01;;;;;;;3.40;2.60;;;;;;;18.64;49.80;98673.32;104776;1274;76822;-25
2022/05/26 10:39:38;;;;;;;5.60;3.00;;;;;;;18.28;50.32;98673.56;104616;1273;75460;-25
2022/05/26 10:42:24;;;;;;;2.60;1.90;;;;;;;18.53;48.94;98665.38;104587;1271;63143;-25
2022/05/26 10:45:21;;;;;;;4.00;2.80;;;;;;;18.53;49.79;98671.98;105079;1271;63206;-25
2022/05/26 10:48:05;;;;;;;4.60;2.40;;;;;;;18.49;50.44;98674.29;104911;1271;76490;-24
2022/05/26 10:50:45;;;;;;;4.20;2.20;;;;;;;18.79;50.54;98675.74;105120;1271;76940;-25
2022/05/26 10:53:36;;;;;;;4.10;2.00;;;;;;;18.36;48.27;98664.20;104757;1274;75390;-25
2022/05/26 10:56:39;;;;;;;3.10;2.10;;;;;;;18.35;47.42;98658.44;104754;1271;62073;-25
2022/05/26 10:59:16;;;;;;;3.70;2.00;;;;;;;18.75;46.59;98660.52;104739;1271;62817;-25
2022/05/26 11:02:04;;;;;;;2.90;1.90;;;;;;;18.97;46.12;98669.03;104396;1274;76604;-25
2022/05/26 11:04:56;;;;;;;2.20;1.60;;;;;;;19.40;46.74;98671.86;104677;1274;76971;-26
2022/05/26 11:07:45;;;;;;;2.20;1.40;;;;;;;19.01;45.44;98669.80;104875;1271;75372;-24
2022/05/26 11:10:27;;;;;;;2.60;1.60;;;;;;;18.82;44.92;98665.42;104637;1271;62793;-24
2022/05/26 11:13:04;;;;;;;2.30;1.50;;;;;;;18.74;45.81;98667.77;104652;1274;61267;-24
2022/05/26 11:18:54;;;;;;;2.10;1.40;;;;;;;18.99;45.95;98674.36;105046;1274;75944;-24
2022/05/26 11:21:22;;;;;;;6.90;1.60;;;;;;;19.40;44.49;98663.99;105097;1271;74125;-24
2022/05/26 11:23:49;;;;;;;2.50;1.40;;;;;;;19.33;44.73;98654.31;104961;1271;63061;-24
2022/05/26 11:26:19;;;;;;;3.90;1.40;;;;;;;19.80;44.40;98656.00;104802;1271;63919;-25
2022/05/26 11:28:56;;;;;;;2.00;1.30;;;;;;;19.78;42.38;98656.44;104685;1271;75591;-25
2022/05/26 11:37:23;;;;;;;2.30;1.30;;;;;;;18.66;45.25;98675.17;104659;1271;62828;-24
2022/05/26 11:39:52;;;;;;;2.30;1.00;;;;;;;18.56;44.13;98662.56;104730;1271;61853;-25
2022/05/26 11:42:37;;;;;;;1.60;1.20;;;;;;;18.24;43.86;98677.05;104602;1271;76851;-25
2022/05/26 11:45:08;;;;;;;1.40;1.10;;;;;;;18.34;43.83;98671.92;104789;1271;75882;-25
2022/05/26 11:47:55;;;;;;;2.30;1.40;;;;;;;18.64;44.38;98677.08;104760;1271;74306;-25
2022/05/26 11:50:43;;;;;;;1.50;1.00;;;;;;;19.41;44.40;98681.22;104743;1271;61949;-25
2022/05/26 11:53:24;;;;;;;1.20;1.10;;;;;;;19.62;43.25;98666.66;104837;1271;61611;-25
2022/05/26 11:55:53;;;;;;;3.30;1.70;;;;;;;19.52;42.73;98679.34;104613;1271;75563;-24
2022/05/26 11:58:31;;;;;;;1.40;1.00;;;;;;;18.95;42.15;98665.56;104485;1271;76856;-24
2022/05/26 12:01:33;;;;;;;1.30;1.10;;;;;;;18.62;41.97;98663.80;104641;1271;75512;-24
2022/05/26 12:04:15;;;;;;;3.30;0.90;;;;;;;19.24;42.70;98674.73;104807;1271;61654;-24
2022/05/26 12:07:03;;;;;;;1.40;1.00;;;;;;;19.81;42.02;98673.48;104675;1271;63439;-24
2022/05/26 12:09:50;;;;;;;4.80;1.10;;;;;;;19.57;41.12;98669.06;104686;1271;76381;-24
2022/05/26 12:12:18;;;;;;;2.20;0.90;;;;;;;18.96;39.86;98673.57;104683;1271;75773;-26
2022/05/26 12:14:55;;;;;;;2.40;0.90;;;;;;;18.71;40.05;98672.90;104767;1272;75217;-26
2022/05/26 12:17:32;;;;;;;1.80;1.00;;;;;;;19.30;42.25;98669.73;104743;1274;63071;-24
2022/05/26 12:20:11;;;;;;;1.50;1.00;;;;;;;19.69;41.11;98668.25;104766;1271;61854;-24
2022/05/26 12:22:38;;;;;;;0.80;0.80;;;;;;;19.63;38.86;98646.47;104822;1271;76478;-25
2022/05/26 12:25:27;;;;;;;2.50;1.10;;;;;;;19.68;38.94;98657.43;105064;1274;75842;-26
2022/05/26 12:27:57;;;;;;;1.10;1.00;;;;;;;19.48;39.46;98656.04;105010;1271;75449;-25
2022/05/26 12:30:33;;;;;;;1.00;0.90;;;;;;;19.12;40.18;98656.02;104862;1272;62759;-24
2022/05/26 12:33:20;;;;;;;2.50;1.00;;;;;;;18.75;40.54;98648.64;104619;1271;62954;-25